Airfield :







YOU CAN JOIN US ON...

 
LOGIN :

Register | Disclaimer

   EN    FR    IT 

 









Legend :    VFR   Marginal VFR   IFR   Intensive IFR   Very Intensive IFR
Visi :
Ceiling :
>= 8 km
>= 3000ft
5 to 8 km
1000 to 3000 ft
1500m to 5 km
500 to 1000 ft
800 to 1500m
200 to 500 ft
< 800m
< 200 ft
Symbols :   Thunderstorms  Fog  Heavy snow  Heavy precipitations  Wind > 20 kt






- Airport Elevation : 133 ft
- IATA code : BED


KBED - Laurence G Hanscom Field

CURRENT METAR :
  • 210451Z AUTO 31007KT 10SM SCT040 SCT050 02/M01 A3001 RMK AO2 SLP177 T00221006 400500022

EXPIRED METARs :
  • 210353Z 31006KT 10SM FEW035 SCT065 02/00 A3000 RMK AO2 T00220000
  • 210301Z 31006KT 10SM BKN027 OVC047 03/01 A3000 RMK AO2 T00280006
  • 210251Z 31008KT 10SM SCT027 OVC047 03/01 A3000 RMK AO2 SLP174 60001 T00280006 51014

TAF KBED
Valid from the 21 at 06:00 until the 22 at 06:00 UTC


210528Z 2106/2206 31007KT P6SM SCT040
FM211000 32006KT P6SM SCT120
FM212000 30003KT P6SM SKC
FM220100 00000KT P6SM SCT200
FM220400 20003KT P6SM BKN120



MET'MAP, your aeronautical weather chart ! - Copyright ORBIFLY December 2007 - Disclaimer

ORBIFLY MET'MAP TEAM :

Programming & Development : Alexandra Zaïnal
Concept & Development : Baudouin d'Aumeries
Co-Development & Prog : Marc-Olivier Méhu
Technical & hardware support : Manuel Goepfert

Contact : metmap@orbifly.com




SOURCES & CREDITS :

   NOAA